首页
METAR-TAF:

METAR-TAF

机场 :

伯其拉, 法国

纬度: 44-49N, 经度: 000-31E, 海拔: 51米

当前天气观测

该预报发布于20分钟前的19:30 UTC
风速5节,风向西转西南
温度 8°C
湿度 76%
气压 1033 hPa
能见度10公里或以上

METAR: LFBE 181930Z AUTO 25005KT 9999 FEW044/// BKN056/// ///TCU 08/04 Q1033 BECMG BKN040

时间: 20:50 (19:50 UTC)

预报

该预报发布于2小时和50分钟前的17:00 UTC
预报有效从18日的 18点(UTC)到 19日的 18点(UTC)
风速8节,风向西
能见度10公里或以上
多云层高于4000英尺
几率 30% :
短暂存在
从 18日的 18点(UTC)到 18日的 20点(UTC)
能見度: 6000
少量云层高于3000英尺, 塔状积云.
多云层高于4000英尺
小阵雨
几率 30% :
短暂存在
从 19日的 05点(UTC)到 19日的 10点(UTC)
能見度: 4000
多云层高于800英尺
轻雾

TAF: LFBE 181700Z 1818/1918 26008KT 9999 BKN040 PROB30 TEMPO 1818/1820 6000 -SHRA FEW030TCU BKN040 PROB30 TEMPO 1905/1910 4000 BR BKN008

超过4000个机场的气象观测和天气预报(METAR&TAF报告)。

可查询的气象台以黄色和红色小点在地图上表示。

将鼠标移到小点上方,可查看气象台名称。

然后点击查看天气观测和预报。

如需切换地图:点击带黑十字的绿色按钮放大地图;点击带横线的绿色按钮缩小地图;或者点击绿色箭头查看邻近地区的地图。


METAR-TAF: